Time;durP1;ratioP1;P1;durP2;ratioP2;P2;SDS_P1;SDS_P2;PMS_P1;PMS_P2;Temp;Humidity;BMP_temperature;BMP_pressure;BME280_temperature;BME280_humidity;BME280_pressure;Samples;Min_cycle;Max_cycle;Signal;HPM_P1;HPM_P2
2022/04/02 00:01:44;;;;;;;8.47;3.33;;;2.90;99.90;;;;;;4994174;28;20033;-79
2022/04/02 00:04:10;;;;;;;6.60;3.30;;;3.00;99.90;;;;;;4994385;28;20037;-80
2022/04/02 00:06:37;;;;;;;7.23;3.40;;;3.00;99.90;;;;;;4993965;28;20026;-79
2022/04/02 00:09:04;;;;;;;8.70;3.27;;;3.00;99.90;;;;;;4994193;28;20034;-79
2022/04/02 00:11:30;;;;;;;6.60;3.40;;;3.00;99.90;;;;;;4993012;28;20256;-79
2022/04/02 00:13:56;;;;;;;5.27;3.13;;;3.00;99.90;;;;;;4994248;28;20371;-79
2022/04/02 00:16:22;;;;;;;5.93;3.27;;;3.00;99.90;;;;;;4976541;28;20040;-79
2022/04/02 00:18:49;;;;;;;7.07;3.50;;;3.00;99.90;;;;;;4993914;28;20042;-79
2022/04/02 00:21:15;;;;;;;6.90;3.33;;;3.00;99.90;;;;;;4993991;28;20141;-79
2022/04/02 00:23:44;;;;;;;6.30;3.03;;;3.00;99.90;;;;;;4976403;28;20550;-79
2022/04/02 00:26:12;;;;;;;5.97;3.27;;;3.00;99.90;;;;;;4992705;28;20502;-79
2022/04/02 00:28:40;;;;;;;6.60;3.30;;;3.00;99.90;;;;;;4976132;28;20080;-80
2022/04/02 00:31:09;;;;;;;7.37;3.00;;;3.10;99.90;;;;;;4993902;28;20054;-79
2022/04/02 00:33:37;;;;;;;7.80;3.40;;;3.10;99.90;;;;;;4993493;28;20041;-79
2022/04/02 00:36:03;;;;;;;5.50;2.67;;;3.10;99.90;;;;;;4976266;28;20125;-79
2022/04/02 00:38:29;;;;;;;8.97;2.77;;;3.10;99.90;;;;;;4976040;28;20422;-79
2022/04/02 00:40:55;;;;;;;6.50;2.53;;;3.10;99.90;;;;;;4976209;28;20409;-79
2022/04/02 00:43:30;;;;;;;7.17;2.83;;;3.20;99.90;;;;;;4976080;28;20117;-79
2022/04/02 00:45:58;;;;;;;5.00;2.50;;;3.20;99.90;;;;;;4992412;28;20403;-79
2022/04/02 00:48:26;;;;;;;5.87;2.43;;;3.10;99.70;;;;;;4991864;28;20129;-79
2022/04/02 00:50:55;;;;;;;5.47;2.63;;;3.20;99.70;;;;;;4993547;28;20044;-79
2022/04/02 00:53:28;;;;;;;7.97;2.58;;;3.10;99.30;;;;;;4993320;28;20034;-79
2022/04/02 00:55:54;;;;;;;6.63;2.40;;;3.10;99.50;;;;;;4959870;28;20037;-79
2022/04/02 00:58:20;;;;;;;6.30;2.80;;;3.10;99.40;;;;;;4993135;28;20414;-79
2022/04/02 01:00:47;;;;;;;5.93;2.53;;;3.20;99.60;;;;;;4975736;28;20030;-79
2022/04/02 01:03:17;;;;;;;6.43;2.60;;;3.10;99.40;;;;;;4975620;28;20031;-79
2022/04/02 01:05:48;;;;;;;6.60;2.50;;;3.10;99.00;;;;;;4975875;28;20030;-79
2022/04/02 01:08:14;;;;;;;4.57;2.67;;;3.10;99.30;;;;;;4974791;28;20375;-79
2022/04/02 01:10:41;;;;;;;5.43;2.33;;;3.10;99.40;;;;;;4991649;28;20030;-80
2022/04/02 01:13:09;;;;;;;6.43;2.63;;;3.10;98.50;;;;;;4975398;28;20030;-79
2022/04/02 01:15:36;;;;;;;6.97;2.33;;;3.10;98.60;;;;;;4991634;28;20512;-80
2022/04/02 01:18:03;;;;;;;5.27;2.47;;;3.10;97.90;;;;;;4975183;28;20030;-79
2022/04/02 01:20:34;;;;;;;5.83;2.00;;;3.20;98.00;;;;;;4991774;28;20414;-79
2022/04/02 01:23:01;;;;;;;6.13;2.00;;;3.10;97.90;;;;;;4991550;28;20026;-79
2022/04/02 01:25:32;;;;;;;6.57;2.30;;;3.20;98.30;;;;;;4975416;28;20038;-79
2022/04/02 01:28:01;;;;;;;4.20;2.20;;;3.20;98.40;;;;;;4991357;28;20415;-79
2022/04/02 01:30:31;;;;;;;5.43;2.40;;;3.20;98.10;;;;;;4959734;28;20037;-79
2022/04/02 01:32:57;;;;;;;3.70;2.10;;;3.20;97.50;;;;;;4975084;28;20498;-79
2022/04/02 01:35:23;;;;;;;4.43;2.00;;;3.20;97.70;;;;;;4975228;28;20041;-79
2022/04/02 01:38:02;;;;;;;6.22;2.55;;;3.20;97.70;;;;;;4960658;28;20053;-79
2022/04/02 01:40:30;;;;;;;3.97;2.10;;;3.20;97.20;;;;;;4975272;28;20037;-79
2022/04/02 01:42:55;;;;;;;5.57;2.20;;;3.20;97.60;;;;;;4991388;28;20026;-79
2022/04/02 01:45:22;;;;;;;4.23;1.90;;;3.20;96.60;;;;;;4975078;28;20033;-80
2022/04/02 01:47:54;;;;;;;7.60;3.43;;;3.30;96.60;;;;;;4990972;28;20119;-79
2022/04/02 01:50:23;;;;;;;6.60;2.17;;;3.30;96.90;;;;;;4991380;28;20485;-80
2022/04/02 01:52:51;;;;;;;6.67;2.10;;;3.30;96.70;;;;;;4990989;28;20482;-79
2022/04/02 01:55:19;;;;;;;4.70;2.00;;;3.20;96.60;;;;;;4974902;28;20038;-79
2022/04/02 01:57:51;;;;;;;4.77;2.00;;;3.20;96.30;;;;;;4974992;28;20118;-80
2022/04/02 02:00:25;;;;;;;3.77;1.90;;;3.20;96.10;;;;;;4975178;28;20034;-79
2022/04/02 02:02:51;;;;;;;5.13;2.10;;;3.20;96.30;;;;;;4974880;28;20030;-79
2022/04/02 02:05:16;;;;;;;6.13;2.40;;;3.20;96.10;;;;;;4990945;28;20482;-79
2022/04/02 02:07:51;;;;;;;3.73;2.00;;;3.20;96.40;;;;;;5005599;23;20038;-69
2022/04/02 02:10:27;;;;;;;5.60;2.33;;;3.20;96.50;;;;;;4975110;28;20039;-69
2022/04/02 02:13:00;;;;;;;6.27;1.97;;;3.20;96.00;;;;;;4974774;28;20034;-69
2022/04/02 02:15:41;;;;;;;5.87;2.10;;;3.20;95.80;;;;;;4992169;28;20030;-69
2022/04/02 02:18:07;;;;;;;4.80;1.90;;;3.20;95.90;;;;;;4974603;28;20023;-69
2022/04/02 02:20:33;;;;;;;6.10;1.90;;;3.20;95.70;;;;;;4990647;28;20034;-69
2022/04/02 02:22:59;;;;;;;5.93;2.70;;;3.20;95.90;;;;;;4990721;28;20022;-69
2022/04/02 02:25:26;;;;;;;4.43;2.17;;;3.20;95.90;;;;;;4991967;28;20041;-69
2022/04/02 02:27:52;;;;;;;4.30;1.93;;;3.20;96.20;;;;;;4990423;28;20065;-69
2022/04/02 02:30:22;;;;;;;;;;;3.20;95.90;;;;;;4975119;28;20027;-69
2022/04/02 02:32:49;;;;;;;4.60;2.10;;;3.20;95.40;;;;;;4974307;28;20015;-69
2022/04/02 02:38:04;;;;;;;4.83;1.90;;;3.30;95.50;;;;;;4991590;28;20093;-69
2022/04/02 02:40:35;;;;;;;4.93;2.20;;;3.20;95.60;;;;;;4991991;28;20415;-69
2022/04/02 02:43:02;;;;;;;4.67;1.70;;;3.30;95.50;;;;;;4991652;28;20089;-69
2022/04/02 02:45:32;;;;;;;6.72;2.08;;;3.30;95.30;;;;;;4990299;28;20045;-69
2022/04/02 02:48:01;;;;;;;4.82;2.00;;;3.20;94.80;;;;;;4974020;28;20451;-69
2022/04/02 02:50:38;;;;;;;4.20;1.83;;;3.20;94.60;;;;;;4974292;28;20491;-69
2022/04/02 02:53:04;;;;;;;4.57;2.07;;;3.20;94.60;;;;;;4974254;28;20113;-69
2022/04/02 02:55:30;;;;;;;3.93;1.83;;;3.20;95.10;;;;;;4973912;28;20093;-69
2022/04/02 02:58:00;;;;;;;3.23;1.70;;;3.20;95.10;;;;;;4973901;28;20030;-69
2022/04/02 03:00:26;;;;;;;4.27;1.70;;;3.20;94.90;;;;;;4974123;28;20085;-69
2022/04/02 03:02:58;;;;;;;4.13;2.00;;;3.20;94.70;;;;;;4974016;28;20372;-69
2022/04/02 03:05:28;;;;;;;5.13;1.83;;;3.20;95.10;;;;;;4974051;28;20041;-69
2022/04/02 03:07:58;;;;;;;4.00;1.73;;;3.20;94.70;;;;;;4974170;28;20041;-69
2022/04/02 03:10:33;;;;;;;4.37;1.87;;;3.20;94.20;;;;;;4973943;28;20034;-69
2022/04/02 03:12:59;;;;;;;3.97;1.80;;;3.20;94.00;;;;;;4991325;28;20402;-69
2022/04/02 03:15:30;;;;;;;5.00;2.13;;;3.20;94.20;;;;;;4973705;28;20058;-69
2022/04/02 03:18:03;;;;;;;3.57;1.70;;;3.10;94.10;;;;;;4973736;28;20100;-70
2022/04/02 03:20:30;;;;;;;3.70;1.80;;;3.20;93.80;;;;;;4990094;28;20026;-69
2022/04/02 03:22:56;;;;;;;3.57;1.50;;;3.20;94.50;;;;;;4990122;28;20030;-69
2022/04/02 03:25:24;;;;;;;3.37;1.83;;;3.10;93.90;;;;;;4973729;28;20160;-69
2022/04/02 03:27:50;;;;;;;4.47;1.80;;;3.10;94.00;;;;;;4973677;28;20042;-69
2022/04/02 03:30:20;;;;;;;4.03;1.90;;;3.10;94.10;;;;;;4974057;28;20030;-70
2022/04/02 03:32:49;;;;;;;4.17;1.90;;;3.10;94.00;;;;;;4975743;28;20076;-70
2022/04/02 03:35:17;;;;;;;3.90;1.80;;;3.10;93.90;;;;;;4994896;28;20030;-70
2022/04/02 03:37:50;;;;;;;4.60;1.90;;;3.10;93.90;;;;;;4977336;28;20494;-70
2022/04/02 03:40:20;;;;;;;4.00;1.90;;;3.10;93.60;;;;;;4995079;28;20061;-69
2022/04/02 03:42:47;;;;;;;5.20;2.03;;;3.10;93.70;;;;;;4977384;28;20038;-69
2022/04/02 03:45:19;;;;;;;3.90;1.80;;;3.10;93.60;;;;;;4993671;28;20053;-70
2022/04/02 03:47:49;;;;;;;3.33;1.80;;;3.10;93.90;;;;;;4994614;28;20034;-70
2022/04/02 03:50:16;;;;;;;5.03;2.03;;;3.10;93.40;;;;;;4977312;28;20033;-70
2022/04/02 03:52:47;;;;;;;3.53;1.63;;;3.10;93.40;;;;;;4994771;28;20030;-69
2022/04/02 03:55:18;;;;;;;4.47;1.73;;;3.10;93.50;;;;;;4977000;28;20026;-69
2022/04/02 03:57:49;;;;;;;3.33;1.80;;;3.10;93.20;;;;;;4976928;28;20467;-69
2022/04/02 04:00:19;;;;;;;5.10;1.90;;;3.10;93.30;;;;;;4977062;28;20034;-69
2022/04/02 04:03:02;;;;;;;5.60;1.70;;;3.10;93.30;;;;;;4993198;28;20117;-69
2022/04/02 04:05:33;;;;;;;3.10;1.63;;;3.10;93.00;;;;;;4977066;28;20026;-69
2022/04/02 04:08:01;;;;;;;4.33;1.77;;;3.10;93.30;;;;;;4993051;28;20037;-69
2022/04/02 04:10:29;;;;;;;4.23;1.80;;;3.10;93.30;;;;;;4993228;28;20129;-69
2022/04/02 04:12:55;;;;;;;4.57;1.83;;;3.10;93.10;;;;;;4992892;28;20034;-69
2022/04/02 04:15:25;;;;;;;4.33;1.90;;;3.10;92.80;;;;;;4961357;28;20069;-69
2022/04/02 04:17:52;;;;;;;4.33;1.87;;;3.10;92.70;;;;;;4992854;28;20042;-69
2022/04/02 04:20:20;;;;;;;3.10;1.70;;;3.10;92.80;;;;;;4994344;28;20419;-69
2022/04/02 04:22:46;;;;;;;5.30;1.73;;;3.10;92.90;;;;;;4992976;28;20027;-69
2022/04/02 04:25:15;;;;;;;5.35;1.88;;;3.20;92.40;;;;;;4976913;28;20616;-69
2022/04/02 04:27:44;;;;;;;3.70;1.80;;;3.10;92.50;;;;;;4992650;28;20031;-69
2022/04/02 04:30:13;;;;;;;3.53;1.80;;;3.10;92.30;;;;;;4976627;28;20039;-69
2022/04/02 04:32:40;;;;;;;4.70;1.90;;;3.10;92.60;;;;;;4976576;28;20427;-69
2022/04/02 04:35:06;;;;;;;4.10;1.70;;;3.20;92.40;;;;;;4976393;28;20054;-69
2022/04/02 04:37:37;;;;;;;4.40;1.70;;;3.20;92.50;;;;;;4994124;28;20027;-69
2022/04/02 04:40:09;;;;;;;5.57;1.53;;;3.20;92.30;;;;;;4976530;28;20030;-69
2022/04/02 04:42:37;;;;;;;4.47;2.00;;;3.20;91.90;;;;;;4976243;28;20031;-69
2022/04/02 04:45:04;;;;;;;4.70;2.07;;;3.20;92.10;;;;;;4993895;28;20034;-70
2022/04/02 04:47:31;;;;;;;4.03;1.80;;;3.20;92.10;;;;;;4976070;28;20030;-70
2022/04/02 04:49:58;;;;;;;3.83;1.80;;;3.20;91.70;;;;;;4976435;28;20022;-69
2022/04/02 04:52:24;;;;;;;4.20;1.70;;;3.30;91.90;;;;;;4992283;28;20030;-70
2022/04/02 04:54:50;;;;;;;3.30;1.50;;;3.20;91.60;;;;;;4976177;28;20026;-69
2022/04/02 04:57:18;;;;;;;5.90;1.77;;;3.20;91.60;;;;;;4992085;28;20407;-69
2022/04/02 04:59:57;;;;;;;5.33;2.10;;;3.20;91.80;;;;;;4976071;28;20033;-70
2022/04/02 05:02:26;;;;;;;4.00;1.80;;;3.20;91.70;;;;;;4975968;28;20513;-69
2022/04/02 05:04:52;;;;;;;4.50;1.70;;;3.20;91.40;;;;;;4992132;28;20030;-69
2022/04/02 05:07:19;;;;;;;3.23;1.70;;;3.20;91.00;;;;;;4975767;28;20108;-70
2022/04/02 05:09:48;;;;;;;3.72;1.70;;;3.30;91.30;;;;;;4975876;28;20376;-69
2022/04/02 05:12:15;;;;;;;4.33;2.03;;;3.30;91.10;;;;;;4993364;28;20023;-69
2022/04/02 05:14:45;;;;;;;6.20;2.50;;;3.30;91.10;;;;;;4992043;28;20547;-69
2022/04/02 05:17:18;;;;;;;5.33;2.20;;;3.30;91.10;;;;;;4991763;28;20121;-69
2022/04/02 05:19:46;;;;;;;5.53;1.90;;;3.30;91.20;;;;;;4975850;28;20391;-69
2022/04/02 05:22:13;;;;;;;5.73;2.10;;;3.30;91.60;;;;;;4976151;28;20419;-69
2022/04/02 05:24:45;;;;;;;5.43;2.03;;;3.30;91.30;;;;;;4992161;28;20037;-69
2022/04/02 05:27:13;;;;;;;5.17;1.70;;;3.20;91.60;;;;;;4975501;28;20034;-69
2022/04/02 05:29:39;;;;;;;4.20;1.73;;;3.20;91.40;;;;;;4975790;28;20119;-69
2022/04/02 05:32:05;;;;;;;5.20;1.77;;;3.20;91.40;;;;;;4993028;28;20431;-69
2022/04/02 05:34:31;;;;;;;4.10;2.00;;;3.20;91.30;;;;;;4993008;28;20041;-69
2022/04/02 05:36:58;;;;;;;3.47;1.70;;;3.20;91.30;;;;;;4992734;28;20399;-70
2022/04/02 05:39:24;;;;;;;5.03;2.10;;;3.20;91.40;;;;;;4975412;28;20150;-70
2022/04/02 05:41:51;;;;;;;4.37;2.03;;;3.20;91.30;;;;;;4975254;28;20057;-70
2022/04/02 05:44:17;;;;;;;3.43;1.83;;;3.30;91.40;;;;;;4975464;28;20033;-70
2022/04/02 05:46:43;;;;;;;4.50;2.00;;;3.30;91.00;;;;;;4975076;28;20038;-70
2022/04/02 05:49:09;;;;;;;4.60;1.80;;;3.30;91.20;;;;;;4992656;28;20030;-69
2022/04/02 05:51:35;;;;;;;3.93;1.90;;;3.30;91.20;;;;;;4992502;28;20022;-69
2022/04/02 05:54:01;;;;;;;6.07;2.10;;;3.30;91.10;;;;;;4992668;28;20030;-69
2022/04/02 05:56:28;;;;;;;3.90;1.80;;;3.30;91.20;;;;;;4991851;28;20041;-69
2022/04/02 05:58:54;;;;;;;3.63;1.80;;;3.30;91.10;;;;;;4992377;28;20105;-69
2022/04/02 06:01:21;;;;;;;3.73;1.83;;;3.30;91.20;;;;;;4992338;28;20086;-70
2022/04/02 06:03:47;;;;;;;4.53;1.83;;;3.30;91.00;;;;;;4992466;28;20023;-69
2022/04/02 06:06:13;;;;;;;4.73;1.90;;;3.30;91.00;;;;;;4992172;28;20038;-69
2022/04/02 06:08:40;;;;;;;5.50;2.30;;;3.30;91.30;;;;;;4992248;28;20038;-70
2022/04/02 06:11:08;;;;;;;8.67;3.80;;;3.30;91.30;;;;;;4992153;28;20027;-70
2022/04/02 06:13:34;;;;;;;4.40;1.92;;;3.40;91.80;;;;;;4992110;28;20034;-69
2022/04/02 06:16:01;;;;;;;4.73;2.10;;;3.40;91.40;;;;;;4992048;28;20487;-69
2022/04/02 06:18:26;;;;;;;4.30;2.03;;;3.40;91.10;;;;;;4991966;28;20015;-69
2022/04/02 06:20:52;;;;;;;5.20;2.50;;;3.40;90.90;;;;;;4992146;28;20034;-70
2022/04/02 06:23:18;;;;;;;5.57;2.30;;;3.40;91.20;;;;;;4992018;28;20449;-69
2022/04/02 06:25:45;;;;;;;6.10;2.20;;;3.40;90.90;;;;;;4990581;28;20034;-70
2022/04/02 06:28:11;;;;;;;4.50;2.47;;;3.40;91.10;;;;;;4991737;28;20062;-69
2022/04/02 06:30:37;;;;;;;5.30;2.10;;;3.50;91.10;;;;;;4991934;28;20035;-69
2022/04/02 06:33:04;;;;;;;5.83;1.83;;;3.40;90.70;;;;;;4992012;28;20057;-69
2022/04/02 06:35:31;;;;;;;4.47;2.13;;;3.40;90.80;;;;;;4990311;28;20045;-69
2022/04/02 06:37:57;;;;;;;5.50;2.23;;;3.50;90.80;;;;;;4974224;28;20297;-69
2022/04/02 06:40:25;;;;;;;4.37;1.90;;;3.50;90.90;;;;;;4974422;28;20026;-69
2022/04/02 06:42:51;;;;;;;6.07;2.17;;;3.50;90.80;;;;;;4974233;28;20033;-69
2022/04/02 06:45:36;;;;;;;5.03;2.00;;;3.50;90.60;;;;;;4991967;28;20092;-70
2022/04/02 06:48:04;;;;;;;6.53;2.47;;;3.50;90.30;;;;;;4991647;28;20179;-69
2022/04/02 06:50:30;;;;;;;4.93;2.47;;;3.50;90.30;;;;;;4991698;28;20034;-69
2022/04/02 06:52:56;;;;;;;6.07;2.40;;;3.60;90.20;;;;;;4991620;28;20498;-70
2022/04/02 06:55:22;;;;;;;4.53;2.00;;;3.60;90.20;;;;;;4990038;28;20038;-69
2022/04/02 06:57:57;;;;;;;4.57;2.10;;;3.60;90.00;;;;;;4991372;28;20088;-69
2022/04/02 07:00:23;;;;;;;4.50;2.23;;;3.60;90.30;;;;;;4991555;28;20030;-69
2022/04/02 07:02:49;;;;;;;4.30;2.10;;;3.70;90.20;;;;;;4991480;28;20027;-69
2022/04/02 07:05:18;;;;;;;4.27;1.77;;;3.70;90.00;;;;;;4991487;28;20030;-69
2022/04/02 07:07:45;;;;;;;8.75;2.10;;;3.70;90.20;;;;;;4993256;28;20022;-69
2022/04/02 07:10:13;;;;;;;4.67;1.90;;;3.70;89.60;;;;;;4995490;28;20026;-69
2022/04/02 07:12:39;;;;;;;5.33;2.23;;;3.60;89.40;;;;;;4994202;28;20084;-69
2022/04/02 07:15:06;;;;;;;5.63;2.10;;;3.70;90.10;;;;;;4995567;28;20030;-69
2022/04/02 07:17:32;;;;;;;7.80;2.13;;;3.70;90.40;;;;;;4995351;28;20088;-69
2022/04/02 07:20:00;;;;;;;6.10;2.10;;;3.80;90.20;;;;;;4995469;28;20411;-69
2022/04/02 07:22:26;;;;;;;4.53;2.27;;;3.80;89.40;;;;;;4995184;28;20034;-69
2022/04/02 07:24:55;;;;;;;5.43;1.70;;;3.80;89.50;;;;;;4995188;28;20032;-70
2022/04/02 07:27:23;;;;;;;5.47;2.13;;;3.90;89.70;;;;;;4995494;28;20085;-69
2022/04/02 07:29:58;;;;;;;5.13;2.17;;;3.80;89.60;;;;;;4977716;28;20034;-70
2022/04/02 07:32:24;;;;;;;5.93;2.20;;;3.90;89.90;;;;;;4995065;28;20048;-69
2022/04/02 07:34:50;;;;;;;3.63;1.90;;;3.90;90.00;;;;;;4994764;28;20060;-70
2022/04/02 07:37:44;;;;;;;3.90;2.30;;;3.90;90.20;;;;;;4994998;28;20480;-69
2022/04/02 07:40:37;;;;;;;5.23;2.10;;;3.90;88.70;;;;;;4995090;28;20050;-70
2022/04/02 07:43:25;;;;;;;4.83;2.10;;;3.90;89.00;;;;;;4977068;28;20500;-69
2022/04/02 07:46:05;;;;;;;5.10;2.30;;;4.00;89.70;;;;;;4995058;28;20038;-69
2022/04/02 07:48:32;;;;;;;4.77;2.37;;;4.10;89.20;;;;;;4995136;28;20109;-69
2022/04/02 07:51:03;;;;;;;5.60;2.60;;;4.10;88.70;;;;;;4994913;28;20030;-69
2022/04/02 07:53:41;;;;;;;6.07;2.90;;;4.10;88.50;;;;;;4977150;28;20469;-69
2022/04/02 07:56:23;;;;;;;6.50;2.80;;;4.20;88.30;;;;;;4994802;28;20039;-69
2022/04/02 07:58:59;;;;;;;8.20;2.70;;;4.20;88.20;;;;;;4977152;28;20031;-69
2022/04/02 08:01:26;;;;;;;8.50;2.50;;;4.20;87.90;;;;;;4994613;28;20030;-69
2022/04/02 08:03:52;;;;;;;5.03;2.00;;;4.30;87.80;;;;;;4993419;28;20099;-69
2022/04/02 08:06:22;;;;;;;5.93;2.50;;;4.30;86.90;;;;;;4976882;28;20041;-69
2022/04/02 08:08:48;;;;;;;5.60;2.40;;;4.40;86.80;;;;;;4994186;28;20041;-69
2022/04/02 08:11:18;;;;;;;5.43;2.43;;;4.40;88.10;;;;;;4994526;28;20110;-69
2022/04/02 08:13:46;;;;;;;5.73;2.50;;;4.40;88.40;;;;;;4993227;28;20035;-69
2022/04/02 08:16:13;;;;;;;5.33;2.27;;;4.50;88.30;;;;;;4976883;28;20499;-69
2022/04/02 08:18:40;;;;;;;7.83;2.40;;;4.50;86.90;;;;;;4993637;28;20031;-69
2022/04/02 08:21:08;;;;;;;4.47;2.10;;;4.60;86.80;;;;;;4994520;28;20092;-69
2022/04/02 08:23:36;;;;;;;6.15;2.33;;;4.60;84.70;;;;;;4976757;28;20065;-69
2022/04/02 08:26:41;;;;;;;5.73;1.93;;;4.70;84.70;;;;;;4994199;28;20030;-69
2022/04/02 08:29:29;;;;;;;6.40;2.07;;;4.70;83.40;;;;;;4978317;28;20038;-69
2022/04/02 08:32:16;;;;;;;5.40;2.13;;;4.70;84.00;;;;;;4992766;28;20030;-69
2022/04/02 08:34:49;;;;;;;9.67;2.10;;;4.70;84.20;;;;;;4994421;28;20027;-70
2022/04/02 08:37:22;;;;;;;6.27;2.17;;;4.70;82.50;;;;;;4976262;28;20089;-70
2022/04/02 08:40:09;;;;;;;4.83;2.00;;;4.80;83.20;;;;;;4994091;28;20027;-69
2022/04/02 08:42:52;;;;;;;5.00;1.90;;;4.90;83.10;;;;;;4993943;28;20037;-69
2022/04/02 08:45:27;;;;;;;4.93;2.17;;;4.80;82.30;;;;;;4993969;28;20026;-69
2022/04/02 08:48:22;;;;;;;5.57;2.03;;;4.80;83.30;;;;;;4993638;28;20058;-69
2022/04/02 08:51:09;;;;;;;5.77;2.17;;;4.90;83.20;;;;;;4994011;28;20036;-69
2022/04/02 08:53:47;;;;;;;4.17;2.10;;;4.90;82.50;;;;;;4993600;28;20077;-70
2022/04/02 08:56:20;;;;;;;5.40;2.50;;;4.80;82.70;;;;;;4993463;28;20061;-70
2022/04/02 08:58:58;;;;;;;5.07;2.60;;;4.90;83.40;;;;;;4976084;28;20069;-69
2022/04/02 09:01:27;;;;;;;4.50;2.23;;;4.90;83.90;;;;;;4993429;28;20033;-70
2022/04/02 09:04:29;;;;;;;4.57;2.20;;;5.00;83.60;;;;;;4993554;28;20034;-69
2022/04/02 09:07:45;;;;;;;4.50;2.20;;;5.00;83.00;;;;;;4975889;28;20034;-69
2022/04/02 09:10:32;;;;;;;5.13;2.20;;;5.10;82.20;;;;;;4956991;28;20587;-69
2022/04/02 09:13:17;;;;;;;7.03;2.50;;;5.10;82.40;;;;;;4993238;28;20145;-69
2022/04/02 09:16:05;;;;;;;7.47;2.77;;;5.10;82.00;;;;;;4975600;28;20037;-69
2022/04/02 09:18:53;;;;;;;5.53;2.63;;;5.10;81.50;;;;;;4992982;28;20113;-69
2022/04/02 09:21:49;;;;;;;6.77;2.80;;;5.10;82.90;;;;;;4975618;28;20066;-69
2022/04/02 09:24:46;;;;;;;6.27;2.90;;;5.10;83.40;;;;;;4993317;28;20049;-69
2022/04/02 09:27:21;;;;;;;4.80;2.90;;;5.20;83.60;;;;;;4992824;28;20023;-70
2022/04/02 09:30:11;;;;;;;7.03;3.13;;;5.10;84.30;;;;;;4992435;28;20038;-71
2022/04/02 09:33:19;;;;;;;7.47;2.97;;;5.10;84.10;;;;;;4992895;28;20034;-71
2022/04/02 09:36:15;;;;;;;7.33;3.13;;;5.10;85.00;;;;;;4992844;28;20105;-71
2022/04/02 09:39:06;;;;;;;5.53;3.10;;;5.20;84.60;;;;;;4992942;28;20458;-71
2022/04/02 09:41:57;;;;;;;6.13;3.13;;;5.30;83.70;;;;;;4992806;28;20026;-71
2022/04/02 09:44:29;;;;;;;5.33;3.30;;;5.30;84.10;;;;;;4993196;28;20057;-70
2022/04/02 09:47:14;;;;;;;5.33;2.63;;;5.30;84.00;;;;;;4992989;28;20034;-70
2022/04/02 09:49:58;;;;;;;5.57;3.00;;;5.40;82.80;;;;;;4993677;28;20041;-70
2022/04/02 09:52:26;;;;;;;5.87;3.10;;;5.50;82.90;;;;;;4992531;28;20479;-70
2022/04/02 09:55:14;;;;;;;7.53;3.20;;;5.50;82.90;;;;;;4992519;28;20044;-71
2022/04/02 09:58:00;;;;;;;6.97;3.50;;;5.60;83.00;;;;;;4992311;28;20049;-70
2022/04/02 10:00:48;;;;;;;7.67;3.93;;;5.50;83.30;;;;;;4975083;28;20030;-70
2022/04/02 10:03:38;;;;;;;8.40;4.07;;;5.50;84.50;;;;;;4992400;28;20061;-72
2022/04/02 10:06:29;;;;;;;6.43;3.80;;;5.50;85.20;;;;;;4992562;28;20030;-71
2022/04/02 10:09:07;;;;;;;6.20;3.60;;;5.50;85.60;;;;;;4992575;28;20446;-71
2022/04/02 10:11:37;;;;;;;10.37;3.47;;;5.50;87.00;;;;;;4992238;28;20387;-68
2022/04/02 10:14:04;;;;;;;9.63;3.93;;;5.50;88.00;;;;;;4992301;28;20033;-69
2022/04/02 10:16:31;;;;;;;7.20;4.13;;;5.40;87.20;;;;;;4991931;28;20061;-68
2022/04/02 10:18:59;;;;;;;9.00;3.37;;;5.30;87.40;;;;;;4992155;28;20048;-68
2022/04/02 10:21:28;;;;;;;8.43;4.07;;;5.30;87.60;;;;;;4991949;28;20054;-69
2022/04/02 10:24:00;;;;;;;;;;;5.30;87.10;;;;;;4992517;28;20026;-68
2022/04/02 10:26:32;;;;;;;9.53;3.90;;;5.30;86.80;;;;;;4992017;28;19916;-69
2022/04/02 10:29:09;;;;;;;6.80;3.67;;;5.30;87.60;;;;;;4992042;28;20390;-69
2022/04/02 10:32:20;;;;;;;6.73;3.90;;;5.20;88.40;;;;;;4992015;28;20036;-70
2022/04/02 10:34:57;;;;;;;9.47;4.10;;;5.10;90.50;;;;;;4959405;28;20046;-69
2022/04/02 10:37:32;;;;;;;6.10;4.10;;;5.00;91.30;;;;;;4991759;28;20077;-69
2022/04/02 10:40:04;;;;;;;11.57;5.60;;;4.90;92.20;;;;;;4991873;28;20023;-69
2022/04/02 10:42:34;;;;;;;6.60;3.50;;;5.00;91.80;;;;;;4991711;28;20030;-69
2022/04/02 10:45:11;;;;;;;7.77;4.10;;;5.00;89.70;;;;;;4990430;28;20054;-69
2022/04/02 10:48:10;;;;;;;7.37;4.20;;;5.00;90.70;;;;;;4974375;28;20460;-69
2022/04/02 10:50:38;;;;;;;6.97;4.20;;;4.90;91.90;;;;;;4991608;28;20030;-70
2022/04/02 10:53:05;;;;;;;8.03;3.70;;;4.70;92.30;;;;;;4991820;28;20109;-71
2022/04/02 10:55:32;;;;;;;6.17;3.90;;;4.70;92.90;;;;;;4974143;28;20034;-70
2022/04/02 10:57:59;;;;;;;7.50;4.30;;;4.60;92.80;;;;;;4991485;28;20507;-70
2022/04/02 11:00:27;;;;;;;9.13;4.80;;;4.50;94.10;;;;;;4974574;28;20031;-70
2022/04/02 11:03:05;;;;;;;5.73;3.83;;;4.50;94.40;;;;;;4991340;28;20396;-70
2022/04/02 11:05:36;;;;;;;8.00;4.03;;;4.50;93.70;;;;;;4990068;28;20041;-70
2022/04/02 11:08:05;;;;;;;8.63;4.53;;;4.60;94.50;;;;;;4991362;28;20034;-70
2022/04/02 11:10:34;;;;;;;8.70;3.95;;;4.60;94.50;;;;;;4974040;28;20026;-71
2022/04/02 11:13:01;;;;;;;7.13;4.20;;;4.70;95.30;;;;;;4991822;28;20041;-70
2022/04/02 11:15:27;;;;;;;7.10;3.97;;;4.80;94.90;;;;;;4991835;28;20387;-70
2022/04/02 11:17:57;;;;;;;6.53;3.80;;;4.80;94.30;;;;;;4991205;28;20031;-71
2022/04/02 11:20:26;;;;;;;6.40;3.73;;;4.90;93.80;;;;;;4991455;28;20033;-70
2022/04/02 11:22:51;;;;;;;6.53;4.00;;;5.00;93.40;;;;;;4991526;28;20105;-70
2022/04/02 11:25:31;;;;;;;8.17;3.90;;;5.10;93.40;;;;;;4957763;28;20266;-70
2022/04/02 11:28:09;;;;;;;6.55;3.22;;;5.20;92.00;;;;;;4974379;28;20363;-69
2022/04/02 11:30:37;;;;;;;5.53;3.30;;;5.30;91.20;;;;;;4991550;28;20026;-70
2022/04/02 11:33:13;;;;;;;6.10;3.45;;;5.40;90.90;;;;;;4991455;28;20101;-70
2022/04/02 11:35:48;;;;;;;7.73;3.40;;;5.50;90.30;;;;;;4991259;28;20364;-71
2022/04/02 11:38:20;;;;;;;8.30;3.70;;;5.60;90.00;;;;;;4991211;28;20495;-69
2022/04/02 11:41:00;;;;;;;5.97;3.60;;;5.60;88.90;;;;;;4973967;28;20035;-69
2022/04/02 11:43:37;;;;;;;15.17;4.10;;;5.60;87.90;;;;;;4991391;28;20133;-70
2022/04/02 11:46:05;;;;;;;8.90;3.83;;;5.60;89.10;;;;;;4991289;28;20445;-70
2022/04/02 11:48:35;;;;;;;8.00;3.63;;;5.60;88.50;;;;;;4991047;28;20114;-70
2022/04/02 11:51:15;;;;;;;8.10;4.10;;;5.60;88.70;;;;;;4973709;28;20685;-70
2022/04/02 11:53:41;;;;;;;8.00;3.43;;;5.70;89.10;;;;;;4992802;28;20057;-70
2022/04/02 11:56:33;;;;;;;6.87;4.03;;;5.70;89.90;;;;;;4995069;28;20038;-70
2022/04/02 11:59:03;;;;;;;7.53;3.90;;;5.50;90.60;;;;;;4994947;28;20120;-70
2022/04/02 12:01:50;;;;;;;8.27;3.53;;;5.40;91.20;;;;;;4994984;28;20101;-69
2022/04/02 12:04:17;;;;;;;9.53;3.90;;;5.20;91.70;;;;;;4994703;28;20030;-70
2022/04/02 12:06:48;;;;;;;7.83;4.00;;;5.10;91.60;;;;;;4994443;28;20475;-70
2022/04/02 12:09:14;;;;;;;8.33;4.03;;;5.00;91.80;;;;;;4994435;28;20034;-69
2022/04/02 12:12:01;;;;;;;8.60;4.10;;;5.00;91.90;;;;;;4977149;28;20037;-69
2022/04/02 12:14:30;;;;;;;8.87;4.30;;;4.90;92.60;;;;;;4994680;28;20027;-71
2022/04/02 12:17:09;;;;;;;6.53;3.67;;;4.80;93.50;;;;;;4994204;28;20045;-71
2022/04/02 12:19:55;;;;;;;7.05;3.92;;;4.80;93.50;;;;;;4993034;28;20030;-70
2022/04/02 12:22:28;;;;;;;6.90;4.10;;;4.80;94.20;;;;;;4994165;28;20022;-70
2022/04/02 12:24:57;;;;;;;8.60;4.50;;;4.80;94.70;;;;;;4994379;28;20502;-70
2022/04/02 12:27:25;;;;;;;8.80;4.30;;;4.80;94.30;;;;;;4994102;28;20092;-70
2022/04/02 12:29:53;;;;;;;8.13;4.03;;;4.90;94.60;;;;;;4994403;28;20065;-70
2022/04/02 12:32:43;;;;;;;7.60;3.83;;;5.00;93.80;;;;;;4993975;28;20269;-70
2022/04/02 12:35:24;;;;;;;5.17;3.33;;;5.00;93.30;;;;;;4994089;28;20041;-70
2022/04/02 12:37:55;;;;;;;5.37;3.20;;;5.10;92.90;;;;;;4993892;28;20171;-70
2022/04/02 12:40:23;;;;;;;8.20;4.07;;;5.20;92.30;;;;;;4994371;28;20034;-70
2022/04/02 12:42:52;;;;;;;7.80;3.50;;;5.20;92.20;;;;;;4994010;28;20033;-70
2022/04/02 12:45:24;;;;;;;8.93;3.67;;;5.30;92.10;;;;;;4993808;28;20034;-70
2022/04/02 12:48:04;;;;;;;5.73;3.20;;;5.40;91.50;;;;;;4993695;28;20066;-70
2022/04/02 12:50:54;;;;;;;7.17;3.63;;;5.40;90.90;;;;;;4994017;28;20049;-71
2022/04/02 12:53:42;;;;;;;6.20;3.37;;;5.50;91.20;;;;;;4993820;28;20049;-70
2022/04/02 12:56:16;;;;;;;7.28;3.15;;;5.50;89.10;;;;;;4993658;28;20476;-71
2022/04/02 12:58:45;;;;;;;7.80;3.20;;;5.60;88.90;;;;;;4976030;28;20034;-71
2022/04/02 13:01:25;;;;;;;5.40;3.17;;;5.60;89.10;;;;;;4993849;28;20034;-70
2022/04/02 13:04:06;;;;;;;7.23;3.67;;;5.60;90.10;;;;;;4993323;28;20506;-71
2022/04/02 13:06:34;;;;;;;8.60;3.67;;;5.60;89.30;;;;;;4975619;28;20034;-71
2022/04/02 13:09:04;;;;;;;7.17;3.30;;;5.70;89.40;;;;;;4993165;28;20096;-71
2022/04/02 13:11:48;;;;;;;6.47;3.33;;;5.70;89.00;;;;;;4993752;28;20117;-71
2022/04/02 13:14:22;;;;;;;6.27;3.13;;;5.70;87.80;;;;;;4994012;28;20030;-71
2022/04/02 13:16:54;;;;;;;7.70;3.23;;;5.70;86.70;;;;;;4993040;28;20037;-70
2022/04/02 13:22:13;;;;;;;6.43;3.30;;;5.70;85.00;;;;;;4993310;28;20053;-70
2022/04/02 13:24:52;;;;;;;9.88;3.80;;;5.80;85.00;;;;;;4993748;28;20070;-70
2022/04/02 13:27:28;;;;;;;7.53;3.22;;;5.90;86.00;;;;;;4992935;28;20120;-71
2022/04/02 13:30:15;;;;;;;8.30;3.10;;;5.90;85.50;;;;;;4992978;28;20518;-71